createdAt,value
2019-04-11T00:02:22.652Z,97086.50
2019-04-11T00:04:50.375Z,97088.61
2019-04-11T00:07:18.251Z,97084.68
2019-04-11T00:09:45.236Z,97081.55
2019-04-11T00:12:12.429Z,97081.27
2019-04-11T00:14:40.122Z,97089.13
2019-04-11T00:17:07.820Z,97085.98
2019-04-11T00:19:35.757Z,97090.43
2019-04-11T00:22:03.517Z,97086.50
2019-04-11T00:24:31.365Z,97085.20
2019-04-11T00:26:58.371Z,97092.26
2019-04-11T00:29:26.072Z,97091.73
2019-04-11T00:31:53.108Z,97088.33
2019-04-11T00:34:20.643Z,97083.09
2019-04-11T00:36:48.490Z,97089.39
2019-04-11T00:39:15.688Z,97096.45
2019-04-11T00:41:42.942Z,97098.28
2019-04-11T00:44:10.415Z,97099.07
2019-04-11T00:46:37.384Z,97103.00
2019-04-11T00:49:04.303Z,97140.15
2019-04-11T00:51:31.898Z,97107.44
2019-04-11T00:53:58.893Z,97104.30
2019-04-11T00:56:26.234Z,97106.92
2019-04-11T00:58:54.005Z,97105.61
2019-04-11T01:01:21.861Z,97108.75
2019-04-11T01:03:49.559Z,97106.92
2019-04-11T01:06:16.516Z,97107.16
2019-04-11T01:08:44.013Z,97106.38
2019-04-11T01:11:11.975Z,97108.47
2019-04-11T01:13:46.653Z,97106.65
2019-04-11T01:16:21.186Z,97104.83
2019-04-11T01:18:48.181Z,97108.47
2019-04-11T01:21:15.795Z,97112.40
2019-04-11T01:23:42.942Z,97122.86
2019-04-11T01:26:10.768Z,97118.94
2019-04-11T01:28:38.596Z,97119.73
2019-04-11T01:31:13.531Z,97126.28
2019-04-11T01:33:40.620Z,97134.64
2019-04-11T01:36:07.593Z,97137.26
2019-04-11T01:38:36.688Z,97133.34
2019-04-11T01:41:04.510Z,97138.84
2019-04-11T01:43:32.433Z,97134.64
2019-04-11T01:46:00.070Z,97138.30
2019-04-11T01:48:28.721Z,97139.60
2019-04-11T01:50:55.629Z,97143.80
2019-04-11T01:53:22.667Z,97145.11
2019-04-11T01:55:50.468Z,97152.96
2019-04-11T01:58:18.377Z,97157.41
2019-04-11T02:00:46.964Z,97156.89
2019-04-11T02:03:25.425Z,97158.98
2019-04-11T02:05:53.587Z,97159.50
2019-04-11T02:08:20.567Z,97155.30
2019-04-11T02:10:48.672Z,97158.44
2019-04-11T02:13:15.844Z,97159.75
2019-04-11T02:15:42.769Z,97165.77
2019-04-11T02:18:10.893Z,97168.91
2019-04-11T02:20:38.982Z,97168.39
2019-04-11T02:23:20.133Z,97168.91
2019-04-11T02:26:02.802Z,97174.14
2019-04-11T02:28:30.920Z,97176.23
2019-04-11T02:30:58.038Z,97172.04
2019-04-11T02:33:26.816Z,97176.23
2019-04-11T02:35:54.241Z,97177.82
2019-04-11T02:38:23.297Z,97179.38
2019-04-11T02:40:50.173Z,97180.67
2019-04-11T02:43:17.607Z,97185.12
2019-04-11T02:45:57.014Z,97185.12
2019-04-11T02:48:13.821Z,97185.39
2019-04-11T02:50:41.562Z,97182.78
2019-04-11T02:53:09.617Z,97194.55
2019-04-11T02:55:37.836Z,97190.88
2019-04-11T02:58:06.194Z,97195.07
2019-04-11T03:00:35.468Z,97197.69
2019-04-11T03:03:03.549Z,97203.98
2019-04-11T03:05:31.088Z,97194.28
2019-04-11T03:07:58.427Z,97195.07
2019-04-11T03:10:27.116Z,97191.94
2019-04-11T03:12:54.575Z,97197.69
2019-04-11T03:15:38.793Z,97202.92
2019-04-11T03:17:54.917Z,97206.05
2019-04-11T03:20:26.377Z,97202.64
2019-04-11T03:22:53.048Z,97209.19
2019-04-11T03:25:15.923Z,97207.36
2019-04-11T03:27:43.320Z,97210.77
2019-04-11T03:30:15.131Z,97211.29
2019-04-11T03:38:00.071Z,97211.29
2019-04-11T03:40:27.177Z,97205.54
2019-04-11T03:42:46.346Z,97209.46
2019-04-11T03:45:30.105Z,97215.22
2019-04-11T03:47:40.877Z,97212.59
2019-04-11T03:50:07.192Z,97208.40
2019-04-11T03:52:28.421Z,97217.55
2019-04-11T03:54:56.202Z,97209.98
2019-04-11T03:57:25.456Z,97214.42
2019-04-11T03:59:54.322Z,97214.42
2019-04-11T04:02:22.413Z,97213.63
2019-04-11T04:04:51.224Z,97216.25
2019-04-11T04:07:19.179Z,97218.86
2019-04-11T04:09:46.330Z,97218.86
2019-04-11T04:12:14.127Z,97214.94
2019-04-11T04:14:45.277Z,97222.79
2019-04-11T04:17:17.058Z,97221.48
2019-04-11T04:20:02.176Z,97226.47
2019-04-11T04:22:37.717Z,97226.20
2019-04-11T04:25:04.832Z,97229.33
2019-04-11T04:27:32.707Z,97231.95
2019-04-11T04:30:02.963Z,97231.43
2019-04-11T04:32:30.439Z,97240.08
2019-04-11T04:34:58.517Z,97241.11
2019-04-11T04:37:26.863Z,97240.59
2019-04-11T04:40:16.255Z,97240.59
2019-04-11T04:42:31.106Z,97241.90
2019-04-11T04:44:51.139Z,97245.83
2019-04-11T04:47:24.808Z,97247.13
2019-04-11T04:49:48.160Z,97245.03
2019-04-11T04:52:16.316Z,97247.13
2019-04-11T04:54:44.382Z,97252.37
2019-04-11T04:57:13.066Z,97252.09
2019-04-11T04:59:42.357Z,97256.53
2019-04-11T05:02:10.524Z,97262.83
2019-04-11T05:04:38.336Z,97265.17
2019-04-11T05:07:07.249Z,97257.84
2019-04-11T05:09:36.059Z,97260.22
2019-04-11T05:12:03.436Z,97264.37
2019-04-11T05:14:31.670Z,97259.94
2019-04-11T05:17:00.073Z,97267.27
2019-04-11T05:19:28.504Z,97264.14
2019-04-11T05:21:55.526Z,97267.27
2019-04-11T05:24:22.884Z,97268.31
2019-04-11T05:26:50.359Z,97267.80
2019-04-11T05:29:17.465Z,97279.49
2019-04-11T05:31:44.896Z,97273.81
2019-04-11T05:34:11.900Z,97270.92
2019-04-11T05:36:38.815Z,97274.84
2019-04-11T05:39:06.647Z,97269.61
2019-04-11T05:41:33.633Z,97269.34
2019-04-11T05:44:03.464Z,97267.00
2019-04-11T05:46:35.215Z,97274.58
2019-04-11T05:49:02.627Z,97277.98
2019-04-11T05:51:38.983Z,97278.77
2019-04-11T05:54:04.397Z,97279.29
2019-04-11T05:56:29.995Z,97281.39
2019-04-11T05:58:59.778Z,97281.11
2019-04-11T06:01:31.502Z,97282.70
2019-04-11T06:04:20.975Z,97281.91
2019-04-11T06:06:46.954Z,97283.73
2019-04-11T06:09:16.279Z,97278.50
2019-04-11T06:12:01.665Z,97281.11
2019-04-11T06:14:33.303Z,97288.17
2019-04-11T06:17:01.955Z,97294.98
2019-04-11T06:19:48.013Z,97292.09
2019-04-11T06:22:15.083Z,97296.02
2019-04-11T06:25:03.566Z,97293.41
2019-04-11T06:27:40.205Z,97292.09
2019-04-11T06:30:24.231Z,97299.43
2019-04-11T06:32:54.222Z,97301.25
2019-04-11T06:35:30.237Z,97303.08
2019-04-11T06:38:16.356Z,97305.18
2019-04-11T06:40:46.078Z,97306.48
2019-04-11T06:43:23.694Z,97302.05
2019-04-11T06:46:00.945Z,97304.66
2019-04-11T06:48:32.245Z,97308.59
2019-04-11T06:51:01.748Z,97304.66
2019-04-11T06:53:30.445Z,97311.48
2019-04-11T06:56:13.916Z,97313.78
2019-04-11T06:58:43.446Z,97317.09
2019-04-11T07:01:12.217Z,97316.73
2019-04-11T07:03:44.878Z,97315.12
2019-04-11T07:06:13.576Z,97311.72
2019-04-11T07:08:42.658Z,97313.10
2019-04-11T07:11:13.892Z,97309.83
2019-04-11T07:13:45.585Z,97310.48
2019-04-11T07:16:13.341Z,97311.52
2019-04-11T07:18:44.567Z,97313.72
2019-04-11T07:21:11.869Z,97318.53
2019-04-11T07:23:57.562Z,97322.92
2019-04-11T07:26:29.536Z,97317.61
2019-04-11T07:29:07.352Z,97323.20
2019-04-11T07:31:53.104Z,97329.18
2019-04-11T07:34:21.764Z,97326.28
2019-04-11T07:37:07.024Z,97335.83
2019-04-11T07:39:44.592Z,97338.91
2019-04-11T07:42:30.995Z,97333.69
2019-04-11T07:45:04.160Z,97340.30
2019-04-11T07:47:38.795Z,97346.14
2019-04-11T07:50:06.172Z,97344.94
2019-04-11T07:52:35.875Z,97352.34
2019-04-11T07:55:02.860Z,97360.16
2019-04-11T07:57:31.417Z,97357.86
2019-04-11T08:00:17.168Z,97360.75
2019-04-11T08:03:01.978Z,97354.84
2019-04-11T08:05:36.784Z,97360.21
2019-04-11T08:08:17.644Z,97368.16
2019-04-11T08:10:48.872Z,97364.86
2019-04-11T08:13:23.605Z,97368.86
2019-04-11T08:16:08.759Z,97372.03
2019-04-11T08:18:53.913Z,97373.95
2019-04-11T08:21:39.152Z,97367.48
2019-04-11T08:24:07.830Z,97375.41
2019-04-11T08:26:55.412Z,97377.78
2019-04-11T08:29:24.291Z,97379.66
2019-04-11T08:32:09.676Z,97375.79
2019-04-11T08:34:38.220Z,97377.66
2019-04-11T08:37:23.354Z,97374.30
2019-04-11T08:39:50.721Z,97379.30
2019-04-11T08:42:37.415Z,97382.19
2019-04-11T08:45:05.994Z,97380.17
2019-04-11T08:47:43.823Z,97379.94
2019-04-11T08:50:03.942Z,97379.71
2019-04-11T08:52:32.603Z,97391.24
2019-04-11T08:55:02.149Z,97383.69
2019-04-11T08:57:33.993Z,97395.21
2019-04-11T09:00:04.158Z,97395.50
2019-04-11T09:02:33.262Z,97392.88
2019-04-11T09:05:20.334Z,97392.65
2019-04-11T09:07:48.512Z,97397.36
2019-04-11T09:10:33.810Z,97395.86
2019-04-11T09:13:05.368Z,97396.66
2019-04-11T09:15:43.264Z,97395.91
2019-04-11T09:18:13.332Z,97400.11
2019-04-11T09:20:40.472Z,97398.29
2019-04-11T09:23:07.376Z,97390.22
2019-04-11T09:25:41.620Z,97394.70
2019-04-11T09:28:11.269Z,97395.50
2019-04-11T09:30:56.973Z,97391.86
2019-04-11T09:33:28.881Z,97394.75
2019-04-11T09:36:15.788Z,97402.59
2019-04-11T09:38:44.381Z,97405.20
2019-04-11T09:41:24.859Z,97400.20
2019-04-11T09:43:53.670Z,97403.10
2019-04-11T09:46:26.118Z,97404.41
2019-04-11T09:48:58.053Z,97409.13
2019-04-11T09:51:44.243Z,97406.00
2019-04-11T09:54:22.036Z,97400.27
2019-04-11T09:57:05.883Z,97396.63
2019-04-11T09:59:34.441Z,97402.67
2019-04-11T10:02:03.022Z,97401.36
2019-04-11T10:04:31.940Z,97400.34
2019-04-11T10:07:03.467Z,97401.13
2019-04-11T10:09:32.370Z,97403.52
2019-04-11T10:12:17.970Z,97404.55
2019-04-11T10:14:46.602Z,97412.95
2019-04-11T10:17:30.175Z,97405.89
2019-04-11T10:19:57.093Z,97410.37
2019-04-11T10:22:26.955Z,97406.23
2019-04-11T10:25:12.793Z,97400.53
2019-04-11T10:27:47.467Z,97406.56
2019-04-11T10:30:33.539Z,97402.13
2019-04-11T10:33:20.547Z,97408.25
2019-04-11T10:36:05.015Z,97404.61
2019-04-11T10:38:32.839Z,97411.72
2019-04-11T10:41:01.373Z,97409.37
2019-04-11T10:43:29.950Z,97404.94
2019-04-11T10:46:07.261Z,97405.22
2019-04-11T10:48:46.714Z,97402.09
2019-04-11T10:51:31.760Z,97400.27
2019-04-11T10:53:59.675Z,97400.05
2019-04-11T10:56:28.454Z,97405.55
2019-04-11T10:58:55.520Z,97404.52
2019-04-11T11:01:40.328Z,97403.53
2019-04-11T11:04:09.534Z,97399.09
2019-04-11T11:06:36.521Z,97408.02
2019-04-11T11:09:08.158Z,97410.11
2019-04-11T11:11:37.202Z,97403.06
2019-04-11T11:14:12.363Z,97406.47
2019-04-11T11:16:44.391Z,97409.87
2019-04-11T11:19:33.559Z,97411.98
2019-04-11T11:21:42.984Z,97404.70
2019-04-11T11:24:21.768Z,97415.16
2019-04-11T11:26:51.997Z,97416.70
2019-04-11T11:29:31.934Z,97408.58
2019-04-11T11:32:07.145Z,97419.03
2019-04-11T11:34:36.754Z,97407.27
2019-04-11T11:37:20.808Z,97425.06
2019-04-11T11:39:52.560Z,97419.03
2019-04-11T11:42:34.453Z,97414.83
2019-04-11T11:45:04.132Z,97419.27
2019-04-11T11:47:49.035Z,97414.83
2019-04-11T11:50:23.911Z,97420.34
2019-04-11T11:52:53.207Z,97410.11
2019-04-11T11:55:21.983Z,97410.63
2019-04-11T11:57:53.599Z,97409.59
2019-04-11T12:00:23.486Z,97402.27
2019-04-11T12:03:01.901Z,97409.32
2019-04-11T12:05:29.509Z,97399.89
2019-04-11T12:08:01.347Z,97410.63
2019-04-11T12:10:34.070Z,97408.52
2019-04-11T12:13:13.340Z,97406.70
2019-04-11T12:15:45.627Z,97406.70
2019-04-11T12:18:24.554Z,97411.94
2019-04-11T12:20:58.769Z,97408.52
2019-04-11T12:23:52.857Z,97417.16
2019-04-11T12:26:13.605Z,97406.70
2019-04-11T12:28:41.744Z,97410.11
2019-04-11T12:31:10.301Z,97408.02
2019-04-11T12:33:57.586Z,97407.22
2019-04-11T12:36:26.506Z,97409.32
2019-04-11T12:39:04.502Z,97412.22
2019-04-11T12:41:49.406Z,97406.98
2019-04-11T12:44:30.394Z,97401.75
2019-04-11T12:47:15.794Z,97405.16
2019-04-11T12:49:52.989Z,97408.29
2019-04-11T12:52:37.205Z,97400.95
2019-04-11T12:55:05.824Z,97393.91
2019-04-11T12:57:50.610Z,97399.14
2019-04-11T13:00:19.334Z,97398.11
2019-04-11T13:03:04.198Z,97387.88
2019-04-11T13:05:32.866Z,97393.91
2019-04-11T13:08:18.425Z,97388.67
2019-04-11T13:10:47.089Z,97389.47
2019-04-11T13:13:24.583Z,97388.95
2019-04-11T13:15:54.694Z,97390.27
2019-04-11T13:18:29.203Z,97391.30
2019-04-11T13:21:14.210Z,97388.16
2019-04-11T13:23:48.747Z,97390.27
2019-04-11T13:26:20.288Z,97392.09
2019-04-11T13:28:48.879Z,97385.55
2019-04-11T13:31:33.711Z,97386.86
2019-04-11T13:34:05.330Z,97389.75
2019-04-11T13:36:42.723Z,97391.06
2019-04-11T13:39:09.943Z,97393.67
2019-04-11T13:41:38.567Z,97391.34
2019-04-11T13:44:09.690Z,97387.92
2019-04-11T13:46:37.408Z,97390.55
2019-04-11T13:49:08.688Z,97388.72
2019-04-11T13:51:53.792Z,97393.95
2019-04-11T13:54:22.472Z,97397.36
2019-04-11T13:56:51.128Z,97395.55
2019-04-11T13:59:34.747Z,97392.92
2019-04-11T14:02:06.173Z,97390.31
2019-04-11T14:04:38.372Z,97390.83
2019-04-11T14:07:03.480Z,97385.59
2019-04-11T14:09:32.123Z,97388.48
2019-04-11T14:11:59.035Z,97387.70
2019-04-11T14:14:27.059Z,97379.34
2019-04-11T14:16:55.610Z,97385.08
2019-04-11T14:19:41.661Z,97383.53
2019-04-11T14:22:13.577Z,97378.82
2019-04-11T14:24:41.800Z,97380.92
2019-04-11T14:27:10.926Z,97381.44
2019-04-11T14:29:42.509Z,97375.41
2019-04-11T14:32:11.074Z,97380.13
2019-04-11T14:34:48.873Z,97386.44
2019-04-11T14:37:38.502Z,97382.74
2019-04-11T14:40:10.614Z,97378.08
2019-04-11T14:42:46.022Z,97386.72
2019-04-11T14:45:29.955Z,97387.23
2019-04-11T14:48:14.856Z,97389.33
2019-04-11T14:50:58.632Z,97388.02
2019-04-11T14:53:27.179Z,97388.81
2019-04-11T14:55:55.759Z,97379.15
2019-04-11T14:58:42.457Z,97381.64
2019-04-11T15:01:11.099Z,97385.38
2019-04-11T15:03:43.280Z,97388.79
2019-04-11T15:06:09.881Z,97393.70
2019-04-11T15:08:41.663Z,97388.14
2019-04-11T15:11:10.240Z,97414.30
2019-04-11T15:13:38.020Z,97395.43
2019-04-11T15:16:24.996Z,97396.22
2019-04-11T15:18:53.545Z,97396.73
2019-04-11T15:21:38.584Z,97399.35
2019-04-11T15:24:07.486Z,97395.43
2019-04-11T15:26:54.152Z,97401.66
2019-04-11T15:29:22.705Z,97398.77
2019-04-11T15:32:09.617Z,97401.37
2019-04-11T15:34:38.165Z,97400.86
2019-04-11T15:37:22.072Z,97410.81
2019-04-11T15:40:05.717Z,97409.23
2019-04-11T15:42:43.006Z,97417.87
2019-04-11T15:45:13.311Z,97422.30
2019-04-11T15:47:54.087Z,97413.66
2019-04-11T15:50:38.952Z,97414.17
2019-04-11T15:53:06.812Z,97416.79
2019-04-11T15:55:52.360Z,97415.77
2019-04-11T15:58:20.908Z,97420.20
2019-04-11T16:00:49.464Z,97436.69
2019-04-11T16:03:16.373Z,97420.16
2019-04-11T16:05:50.676Z,97424.36
2019-04-11T16:08:19.248Z,97423.05
2019-04-11T16:10:53.560Z,97422.53
2019-04-11T16:13:38.521Z,97430.38
2019-04-11T16:16:11.771Z,97424.64
2019-04-11T16:18:52.204Z,97424.64
2019-04-11T16:21:26.247Z,97422.53
2019-04-11T16:24:11.192Z,97431.69
2019-04-11T16:26:48.944Z,97432.20
2019-04-11T16:29:26.447Z,97439.26
2019-04-11T16:31:55.017Z,97442.66
2019-04-11T16:34:26.293Z,97432.44
2019-04-11T16:36:53.403Z,97445.00
2019-04-11T16:39:34.190Z,97442.39
2019-04-11T16:42:05.812Z,97443.18
2019-04-11T16:44:37.426Z,97447.84
2019-04-11T16:47:12.150Z,97448.13
2019-04-11T16:49:42.136Z,97447.34
2019-04-11T16:52:08.579Z,97451.77
2019-04-11T16:54:39.674Z,97448.64
2019-04-11T16:57:04.268Z,97451.26
2019-04-11T16:59:31.290Z,97451.77
2019-04-11T17:01:58.288Z,97459.62
2019-04-11T17:04:25.999Z,97463.54
2019-04-11T17:07:11.744Z,97462.23
2019-04-11T17:09:46.210Z,97468.48
2019-04-11T17:12:13.116Z,97469.28
2019-04-11T17:14:40.024Z,97467.98
2019-04-11T17:17:14.967Z,97475.83
2019-04-11T17:19:36.136Z,97474.00
2019-04-11T17:22:03.728Z,97477.92
2019-04-11T17:24:30.636Z,97474.52
2019-04-11T17:26:57.548Z,97475.03
2019-04-11T17:29:25.010Z,97480.26
2019-04-11T17:31:55.606Z,97482.08
2019-04-11T17:34:21.053Z,97483.91
2019-04-11T17:36:47.961Z,97483.91
2019-04-11T17:39:14.868Z,97481.00
2019-04-11T17:41:42.615Z,97494.88
2019-04-11T17:44:10.536Z,97494.36
2019-04-11T17:46:37.460Z,97494.08
2019-04-11T17:49:04.364Z,97496.70
2019-04-11T17:51:34.422Z,97499.03
2019-04-11T17:54:01.416Z,97500.34
2019-04-11T17:56:28.380Z,97505.85
2019-04-11T17:58:57.684Z,97508.98
2019-04-11T18:01:23.932Z,97514.20
2019-04-11T18:03:50.864Z,97510.28
2019-04-11T18:06:17.818Z,97515.23
2019-04-11T18:08:46.605Z,97511.59
2019-04-11T18:11:13.315Z,97518.64
2019-04-11T18:13:40.228Z,97525.18
2019-04-11T18:16:07.136Z,97524.39
2019-04-11T18:18:35.208Z,97530.13
2019-04-11T18:21:07.087Z,97534.95
2019-04-11T18:23:31.398Z,97537.02
2019-04-11T18:25:58.310Z,97542.75
2019-04-11T18:28:25.446Z,97554.39
2019-04-11T18:30:54.111Z,97554.16
2019-04-11T18:33:20.857Z,97564.48
2019-04-11T18:35:47.825Z,97565.84
2019-04-11T18:38:14.739Z,97572.61
2019-04-11T18:40:41.636Z,97567.89
2019-04-11T18:43:08.548Z,97573.27
2019-04-11T18:45:35.451Z,97574.70
2019-04-11T18:48:02.361Z,97573.91
2019-04-11T18:50:29.276Z,97577.84
2019-04-11T18:52:59.175Z,97581.77
2019-04-11T18:55:24.761Z,97579.81
2019-04-11T18:57:51.671Z,97581.59
2019-04-11T19:00:20.144Z,97582.05
2019-04-11T19:02:47.048Z,97582.89
2019-04-11T19:05:13.969Z,97583.22
2019-04-11T19:07:42.781Z,97585.09
2019-04-11T19:10:09.440Z,97598.92
2019-04-11T19:12:36.372Z,97600.00
2019-04-11T19:15:03.312Z,97598.59
2019-04-11T19:17:30.588Z,97596.20
2019-04-11T19:19:57.539Z,97601.39
2019-04-11T19:22:37.251Z,97599.11
2019-04-11T19:24:53.000Z,97600.00
2019-04-11T19:27:20.555Z,97602.69
2019-04-11T19:29:48.552Z,97608.00
2019-04-11T19:32:15.556Z,97601.38
2019-04-11T19:34:42.464Z,97606.40
2019-04-11T19:37:11.677Z,97605.32
2019-04-11T19:39:37.928Z,97604.34
2019-04-11T19:42:08.743Z,97607.70
2019-04-11T19:44:35.157Z,97610.79
2019-04-11T19:47:01.954Z,97606.12
2019-04-11T19:49:29.578Z,97611.78
2019-04-11T19:52:00.636Z,97608.14
2019-04-11T19:54:25.144Z,97610.48
2019-04-11T19:56:57.084Z,97614.30
2019-04-11T19:59:24.024Z,97609.77
2019-04-11T20:01:53.205Z,97603.42
2019-04-11T20:04:21.675Z,97617.53
2019-04-11T20:06:48.221Z,97615.66
2019-04-11T20:09:15.182Z,97613.05
2019-04-11T20:11:44.719Z,97616.41
2019-04-11T20:14:10.658Z,97612.99
2019-04-11T20:16:41.988Z,97612.99
2019-04-11T20:19:06.221Z,97618.74
2019-04-11T20:21:33.160Z,97609.30
2019-04-11T20:24:00.438Z,97616.64
2019-04-11T20:26:27.357Z,97607.98
2019-04-11T20:28:54.292Z,97615.05
2019-04-11T20:31:21.214Z,97612.66
2019-04-11T20:33:48.149Z,97613.97
2019-04-11T20:36:15.077Z,97615.28
2019-04-11T20:38:44.735Z,97615.79
2019-04-11T20:41:10.646Z,97613.45
2019-04-11T20:43:37.559Z,97616.30
2019-04-11T20:46:04.480Z,97618.92
2019-04-11T20:48:34.860Z,97615.23
2019-04-11T20:50:59.983Z,97613.92
2019-04-11T20:53:26.936Z,97614.44
2019-04-11T20:55:53.845Z,97623.08
2019-04-11T20:58:27.217Z,97617.05
2019-04-11T21:00:53.238Z,97617.05
2019-04-11T21:03:17.932Z,97617.05
2019-04-11T21:05:44.844Z,97616.22
2019-04-11T21:08:11.801Z,97616.73
2019-04-11T21:10:38.732Z,97615.42
2019-04-11T21:13:07.132Z,97611.22
2019-04-11T21:15:34.240Z,97613.84
2019-04-11T21:18:01.157Z,97617.77
2019-04-11T21:20:28.090Z,97617.48
2019-04-11T21:22:54.985Z,97623.00
2019-04-11T21:25:21.968Z,97620.38
2019-04-11T21:27:48.883Z,97618.27
2019-04-11T21:30:15.802Z,97614.86
2019-04-11T21:32:42.732Z,97624.30
2019-04-11T21:35:09.669Z,97625.05
2019-04-11T21:37:36.887Z,97625.33
2019-04-11T21:40:03.926Z,97624.53
2019-04-11T21:42:30.878Z,97631.08
2019-04-11T21:44:57.786Z,97632.89
2019-04-11T21:47:24.692Z,97630.80
2019-04-11T21:49:51.628Z,97631.30
2019-04-11T21:52:18.553Z,97632.10
2019-04-11T21:54:45.948Z,97635.52
2019-04-11T21:57:12.878Z,97641.26
2019-04-11T21:59:39.788Z,97642.28
2019-04-11T22:02:06.724Z,97639.44
2019-04-11T22:04:33.645Z,97640.47
2019-04-11T22:07:00.878Z,97644.91
2019-04-11T22:09:28.413Z,97648.03
2019-04-11T22:11:55.314Z,97646.20
2019-04-11T22:14:22.262Z,97646.72
2019-04-11T22:16:49.178Z,97642.00
2019-04-11T22:19:16.167Z,97529.86
2019-04-11T22:21:45.298Z,97642.00
2019-04-11T22:24:11.662Z,97652.75
2019-04-11T22:26:38.583Z,97653.27
2019-04-11T22:29:05.496Z,97647.75
2019-04-11T22:31:32.413Z,97648.55
2019-04-11T22:34:00.986Z,97647.75
2019-04-11T22:36:30.108Z,97651.39
2019-04-11T22:38:58.730Z,97652.98
2019-04-11T22:41:25.007Z,97649.56
2019-04-11T22:43:51.972Z,97652.19
2019-04-11T22:46:20.952Z,97655.31
2019-04-11T22:48:47.484Z,97654.00
2019-04-11T22:51:14.391Z,97651.39
2019-04-11T22:53:43.206Z,97652.70
2019-04-11T22:56:11.710Z,97657.13
2019-04-11T22:58:38.488Z,97656.34
2019-04-11T23:01:05.399Z,97660.55
2019-04-11T23:03:46.815Z,97660.55
2019-04-11T23:06:11.801Z,97666.58
2019-04-11T23:08:38.757Z,97667.60
2019-04-11T23:11:05.670Z,97667.31
2019-04-11T23:13:32.580Z,97668.11
2019-04-11T23:15:59.507Z,97666.80
2019-04-11T23:18:26.449Z,97669.94
2019-04-11T23:20:55.894Z,97669.94
2019-04-11T23:23:22.868Z,97667.31
2019-04-11T23:25:49.812Z,97671.23
2019-04-11T23:28:16.725Z,97673.06
2019-04-11T23:30:43.659Z,97673.06
2019-04-11T23:33:10.561Z,97676.19
2019-04-11T23:35:37.491Z,97673.58
2019-04-11T23:38:04.396Z,97673.34
2019-04-11T23:40:31.309Z,97672.27
2019-04-11T23:42:58.344Z,97669.65
2019-04-11T23:45:26.913Z,97668.34
2019-04-11T23:47:54.409Z,97671.75
2019-04-11T23:50:24.907Z,97666.52
2019-04-11T23:52:49.996Z,97668.85
2019-04-11T23:55:16.938Z,97668.06
2019-04-11T23:57:43.840Z,97670.67
